sensor_id;sensor_type;location;lat;lon;timestamp;P1;durP1;ratioP1;P2;durP2;ratioP2
70733;SDS011;58320;48.804;9.252;2023-12-04T04:03:30;22.70;;;10.65;;
70733;SDS011;58320;48.804;9.252;2023-12-04T04:05:56;21.97;;;10.20;;
70733;SDS011;58320;48.804;9.252;2023-12-04T04:08:21;25.83;;;12.32;;
70733;SDS011;58320;48.804;9.252;2023-12-04T04:10:47;21.43;;;10.03;;
70733;SDS011;58320;48.804;9.252;2023-12-04T04:13:13;20.48;;;10.88;;
70733;SDS011;58320;48.804;9.252;2023-12-04T04:15:38;20.00;;;10.43;;
70733;SDS011;58320;48.804;9.252;2023-12-04T04:18:04;23.48;;;11.50;;
70733;SDS011;58320;48.804;9.252;2023-12-04T04:20:30;24.50;;;12.27;;
70733;SDS011;58320;48.804;9.252;2023-12-04T04:22:56;22.42;;;11.02;;
70733;SDS011;58320;48.804;9.252;2023-12-04T04:25:21;22.30;;;10.07;;
70733;SDS011;58320;48.804;9.252;2023-12-04T04:27:48;26.50;;;12.45;;
70733;SDS011;58320;48.804;9.252;2023-12-04T04:30:14;23.58;;;11.05;;
70733;SDS011;58320;48.804;9.252;2023-12-04T04:32:41;19.57;;;10.10;;
70733;SDS011;58320;48.804;9.252;2023-12-04T04:35:07;24.88;;;11.70;;
70733;SDS011;58320;48.804;9.252;2023-12-04T04:37:33;24.85;;;12.88;;
70733;SDS011;58320;48.804;9.252;2023-12-04T04:39:58;25.33;;;10.93;;
70733;SDS011;58320;48.804;9.252;2023-12-04T04:42:24;20.08;;;9.52;;
70733;SDS011;58320;48.804;9.252;2023-12-04T04:44:50;21.50;;;10.30;;
70733;SDS011;58320;48.804;9.252;2023-12-04T04:47:15;21.55;;;11.23;;
70733;SDS011;58320;48.804;9.252;2023-12-04T04:49:41;19.13;;;10.20;;
70733;SDS011;58320;48.804;9.252;2023-12-04T04:52:07;24.95;;;12.02;;
70733;SDS011;58320;48.804;9.252;2023-12-04T04:54:32;20.77;;;9.47;;
70733;SDS011;58320;48.804;9.252;2023-12-04T04:56:58;20.10;;;10.18;;
70733;SDS011;58320;48.804;9.252;2023-12-04T04:59:24;20.35;;;10.63;;
70733;SDS011;58320;48.804;9.252;2023-12-04T05:01:50;19.40;;;10.13;;
70733;SDS011;58320;48.804;9.252;2023-12-04T05:04:16;21.05;;;10.27;;
70733;SDS011;58320;48.804;9.252;2023-12-04T05:06:41;20.23;;;9.90;;
70733;SDS011;58320;48.804;9.252;2023-12-04T05:09:07;16.63;;;10.07;;
70733;SDS011;58320;48.804;9.252;2023-12-04T05:11:33;20.35;;;9.48;;
70733;SDS011;58320;48.804;9.252;2023-12-04T05:13:59;18.97;;;9.30;;
70733;SDS011;58320;48.804;9.252;2023-12-04T05:16:24;19.70;;;9.95;;
70733;SDS011;58320;48.804;9.252;2023-12-04T05:18:50;16.80;;;8.60;;
70733;SDS011;58320;48.804;9.252;2023-12-04T05:21:16;19.35;;;9.95;;
70733;SDS011;58320;48.804;9.252;2023-12-04T05:23:41;21.00;;;9.97;;
70733;SDS011;58320;48.804;9.252;2023-12-04T05:26:07;15.32;;;7.82;;
70733;SDS011;58320;48.804;9.252;2023-12-04T05:28:33;19.73;;;8.97;;
70733;SDS011;58320;48.804;9.252;2023-12-04T05:30:59;16.73;;;8.50;;
70733;SDS011;58320;48.804;9.252;2023-12-04T05:33:25;16.67;;;8.05;;
70733;SDS011;58320;48.804;9.252;2023-12-04T05:35:51;18.30;;;8.67;;
70733;SDS011;58320;48.804;9.252;2023-12-04T05:38:18;17.20;;;7.45;;
70733;SDS011;58320;48.804;9.252;2023-12-04T05:40:44;20.35;;;8.95;;
70733;SDS011;58320;48.804;9.252;2023-12-04T05:43:10;13.02;;;7.03;;
70733;SDS011;58320;48.804;9.252;2023-12-04T05:45:36;13.37;;;7.07;;
70733;SDS011;58320;48.804;9.252;2023-12-04T05:48:02;13.80;;;6.57;;
70733;SDS011;58320;48.804;9.252;2023-12-04T05:50:28;18.15;;;7.10;;
70733;SDS011;58320;48.804;9.252;2023-12-04T05:52:53;15.07;;;7.17;;
70733;SDS011;58320;48.804;9.252;2023-12-04T05:55:19;14.15;;;7.53;;
70733;SDS011;58320;48.804;9.252;2023-12-04T05:57:45;18.75;;;8.13;;
70733;SDS011;58320;48.804;9.252;2023-12-04T06:00:11;13.37;;;6.97;;
70733;SDS011;58320;48.804;9.252;2023-12-04T06:02:38;14.57;;;7.88;;
70733;SDS011;58320;48.804;9.252;2023-12-04T06:05:08;16.05;;;7.53;;
70733;SDS011;58320;48.804;9.252;2023-12-04T06:07:34;16.65;;;8.32;;
70733;SDS011;58320;48.804;9.252;2023-12-04T06:10:01;12.83;;;6.43;;
70733;SDS011;58320;48.804;9.252;2023-12-04T06:12:31;16.55;;;8.25;;
70733;SDS011;58320;48.804;9.252;2023-12-04T06:14:57;15.50;;;7.93;;
70733;SDS011;58320;48.804;9.252;2023-12-04T06:17:23;14.30;;;7.38;;
70733;SDS011;58320;48.804;9.252;2023-12-04T06:19:50;15.50;;;7.73;;
70733;SDS011;58320;48.804;9.252;2023-12-04T06:22:15;16.05;;;7.35;;
70733;SDS011;58320;48.804;9.252;2023-12-04T06:24:43;16.60;;;8.98;;
70733;SDS011;58320;48.804;9.252;2023-12-04T06:27:10;18.53;;;9.17;;
70733;SDS011;58320;48.804;9.252;2023-12-04T06:29:41;19.05;;;10.00;;
70733;SDS011;58320;48.804;9.252;2023-12-04T06:32:07;17.33;;;9.02;;
70733;SDS011;58320;48.804;9.252;2023-12-04T06:34:34;21.48;;;9.55;;
70733;SDS011;58320;48.804;9.252;2023-12-04T06:37:01;20.75;;;9.80;;
70733;SDS011;58320;48.804;9.252;2023-12-04T06:39:28;20.70;;;9.70;;
70733;SDS011;58320;48.804;9.252;2023-12-04T06:41:59;20.63;;;9.93;;
70733;SDS011;58320;48.804;9.252;2023-12-04T06:44:25;22.05;;;10.27;;
70733;SDS011;58320;48.804;9.252;2023-12-04T06:46:51;22.30;;;10.63;;
70733;SDS011;58320;48.804;9.252;2023-12-04T06:49:17;23.98;;;10.40;;
70733;SDS011;58320;48.804;9.252;2023-12-04T06:51:44;23.67;;;11.60;;
70733;SDS011;58320;48.804;9.252;2023-12-04T06:54:10;21.92;;;10.27;;
70733;SDS011;58320;48.804;9.252;2023-12-04T06:56:38;18.45;;;10.05;;
70733;SDS011;58320;48.804;9.252;2023-12-04T06:59:04;16.55;;;8.90;;
70733;SDS011;58320;48.804;9.252;2023-12-04T07:01:30;19.07;;;10.03;;
70733;SDS011;58320;48.804;9.252;2023-12-04T07:03:56;20.63;;;9.90;;
70733;SDS011;58320;48.804;9.252;2023-12-04T07:06:22;17.88;;;8.00;;
70733;SDS011;58320;48.804;9.252;2023-12-04T07:08:47;18.13;;;7.90;;
70733;SDS011;58320;48.804;9.252;2023-12-04T07:11:13;17.88;;;8.70;;
70733;SDS011;58320;48.804;9.252;2023-12-04T07:13:40;18.10;;;8.02;;
70733;SDS011;58320;48.804;9.252;2023-12-04T07:16:07;13.88;;;7.70;;
70733;SDS011;58320;48.804;9.252;2023-12-04T07:18:33;17.93;;;8.70;;
70733;SDS011;58320;48.804;9.252;2023-12-04T07:21:00;19.65;;;9.13;;
70733;SDS011;58320;48.804;9.252;2023-12-04T07:23:25;31.15;;;14.52;;
70733;SDS011;58320;48.804;9.252;2023-12-04T07:25:51;26.43;;;13.20;;
70733;SDS011;58320;48.804;9.252;2023-12-04T07:28:17;19.88;;;9.82;;
70733;SDS011;58320;48.804;9.252;2023-12-04T07:30:43;56.78;;;20.95;;
70733;SDS011;58320;48.804;9.252;2023-12-04T07:33:09;24.90;;;10.43;;
70733;SDS011;58320;48.804;9.252;2023-12-04T07:35:34;18.77;;;10.10;;
70733;SDS011;58320;48.804;9.252;2023-12-04T07:38:00;20.00;;;11.07;;
70733;SDS011;58320;48.804;9.252;2023-12-04T07:40:26;20.40;;;9.80;;
70733;SDS011;58320;48.804;9.252;2023-12-04T07:42:52;17.40;;;8.47;;
70733;SDS011;58320;48.804;9.252;2023-12-04T07:45:17;18.93;;;10.10;;
70733;SDS011;58320;48.804;9.252;2023-12-04T07:47:43;19.88;;;9.35;;
70733;SDS011;58320;48.804;9.252;2023-12-04T07:50:09;19.47;;;9.93;;
70733;SDS011;58320;48.804;9.252;2023-12-04T07:52:35;20.58;;;9.45;;
70733;SDS011;58320;48.804;9.252;2023-12-04T07:55:01;17.93;;;9.40;;
70733;SDS011;58320;48.804;9.252;2023-12-04T07:57:26;19.00;;;9.55;;
70733;SDS011;58320;48.804;9.252;2023-12-04T07:59:52;25.67;;;12.93;;
70733;SDS011;58320;48.804;9.252;2023-12-04T08:02:18;24.52;;;12.45;;
70733;SDS011;58320;48.804;9.252;2023-12-04T08:04:44;21.17;;;10.82;;
70733;SDS011;58320;48.804;9.252;2023-12-04T08:07:09;18.90;;;10.23;;
70733;SDS011;58320;48.804;9.252;2023-12-04T08:09:36;21.70;;;9.23;;
70733;SDS011;58320;48.804;9.252;2023-12-04T08:12:02;17.40;;;8.27;;
70733;SDS011;58320;48.804;9.252;2023-12-04T08:14:27;19.37;;;9.83;;
70733;SDS011;58320;48.804;9.252;2023-12-04T08:16:53;18.73;;;9.00;;
70733;SDS011;58320;48.804;9.252;2023-12-04T08:19:19;18.43;;;8.63;;
70733;SDS011;58320;48.804;9.252;2023-12-04T08:21:44;21.48;;;9.80;;
70733;SDS011;58320;48.804;9.252;2023-12-04T08:24:11;18.52;;;9.05;;
70733;SDS011;58320;48.804;9.252;2023-12-04T08:26:37;18.97;;;9.97;;
70733;SDS011;58320;48.804;9.252;2023-12-04T08:29:02;18.33;;;9.35;;
70733;SDS011;58320;48.804;9.252;2023-12-04T08:31:28;20.50;;;10.40;;
70733;SDS011;58320;48.804;9.252;2023-12-04T08:33:54;19.07;;;9.17;;
70733;SDS011;58320;48.804;9.252;2023-12-04T08:36:19;18.67;;;10.10;;
70733;SDS011;58320;48.804;9.252;2023-12-04T08:38:45;18.85;;;9.65;;
70733;SDS011;58320;48.804;9.252;2023-12-04T08:41:11;15.60;;;8.60;;
70733;SDS011;58320;48.804;9.252;2023-12-04T08:43:37;20.10;;;10.57;;
70733;SDS011;58320;48.804;9.252;2023-12-04T08:46:02;16.63;;;9.07;;
70733;SDS011;58320;48.804;9.252;2023-12-04T08:48:28;19.13;;;9.80;;
70733;SDS011;58320;48.804;9.252;2023-12-04T08:50:54;19.48;;;9.95;;
70733;SDS011;58320;48.804;9.252;2023-12-04T08:53:21;20.80;;;9.25;;
70733;SDS011;58320;48.804;9.252;2023-12-04T08:55:47;18.80;;;8.97;;
70733;SDS011;58320;48.804;9.252;2023-12-04T08:58:12;20.27;;;8.60;;
70733;SDS011;58320;48.804;9.252;2023-12-04T09:00:38;16.13;;;8.70;;
70733;SDS011;58320;48.804;9.252;2023-12-04T09:03:08;20.70;;;10.80;;
70733;SDS011;58320;48.804;9.252;2023-12-04T09:05:35;17.25;;;9.43;;
70733;SDS011;58320;48.804;9.252;2023-12-04T09:08:02;19.25;;;9.38;;
70733;SDS011;58320;48.804;9.252;2023-12-04T09:10:28;20.63;;;9.07;;
70733;SDS011;58320;48.804;9.252;2023-12-04T09:12:54;16.70;;;8.75;;
70733;SDS011;58320;48.804;9.252;2023-12-04T09:15:19;17.67;;;9.00;;
70733;SDS011;58320;48.804;9.252;2023-12-04T09:17:48;18.98;;;9.35;;
70733;SDS011;58320;48.804;9.252;2023-12-04T09:20:14;21.10;;;9.82;;
70733;SDS011;58320;48.804;9.252;2023-12-04T09:22:39;19.10;;;9.37;;
70733;SDS011;58320;48.804;9.252;2023-12-04T09:25:05;19.27;;;9.25;;
70733;SDS011;58320;48.804;9.252;2023-12-04T09:27:33;18.00;;;9.13;;
70733;SDS011;58320;48.804;9.252;2023-12-04T09:30:01;18.20;;;8.83;;
70733;SDS011;58320;48.804;9.252;2023-12-04T09:32:27;16.52;;;9.48;;
70733;SDS011;58320;48.804;9.252;2023-12-04T09:34:52;15.80;;;8.63;;
70733;SDS011;58320;48.804;9.252;2023-12-04T09:37:18;17.37;;;9.27;;
70733;SDS011;58320;48.804;9.252;2023-12-04T09:39:44;16.50;;;8.65;;
70733;SDS011;58320;48.804;9.252;2023-12-04T09:42:09;18.03;;;9.20;;
70733;SDS011;58320;48.804;9.252;2023-12-04T09:44:36;13.63;;;8.40;;
70733;SDS011;58320;48.804;9.252;2023-12-04T09:47:02;17.35;;;8.88;;
70733;SDS011;58320;48.804;9.252;2023-12-04T09:49:29;14.70;;;8.25;;
70733;SDS011;58320;48.804;9.252;2023-12-04T09:51:59;16.17;;;9.30;;
70733;SDS011;58320;48.804;9.252;2023-12-04T09:54:27;17.07;;;9.40;;
70733;SDS011;58320;48.804;9.252;2023-12-04T09:56:54;17.98;;;9.57;;
70733;SDS011;58320;48.804;9.252;2023-12-04T09:59:20;18.80;;;9.15;;
70733;SDS011;58320;48.804;9.252;2023-12-04T10:01:54;17.48;;;9.52;;
70733;SDS011;58320;48.804;9.252;2023-12-04T10:04:20;17.93;;;9.57;;
70733;SDS011;58320;48.804;9.252;2023-12-04T10:06:46;18.80;;;9.83;;
70733;SDS011;58320;48.804;9.252;2023-12-04T10:09:16;19.83;;;9.98;;
70733;SDS011;58320;48.804;9.252;2023-12-04T10:11:44;17.45;;;9.18;;
70733;SDS011;58320;48.804;9.252;2023-12-04T10:14:17;17.50;;;9.05;;
70733;SDS011;58320;48.804;9.252;2023-12-04T10:16:44;23.25;;;10.10;;
70733;SDS011;58320;48.804;9.252;2023-12-04T10:21:51;20.10;;;9.93;;
70733;SDS011;58320;48.804;9.252;2023-12-04T10:24:33;17.73;;;8.98;;
70733;SDS011;58320;48.804;9.252;2023-12-04T10:27:01;20.08;;;10.23;;
70733;SDS011;58320;48.804;9.252;2023-12-04T10:29:43;16.75;;;9.02;;
70733;SDS011;58320;48.804;9.252;2023-12-04T10:32:12;12.97;;;8.07;;
70733;SDS011;58320;48.804;9.252;2023-12-04T10:34:37;16.05;;;8.93;;
70733;SDS011;58320;48.804;9.252;2023-12-04T10:37:07;18.90;;;9.48;;
70733;SDS011;58320;48.804;9.252;2023-12-04T10:39:47;17.25;;;8.55;;
70733;SDS011;58320;48.804;9.252;2023-12-04T10:44:52;13.10;;;7.60;;
70733;SDS011;58320;48.804;9.252;2023-12-04T10:47:22;15.30;;;8.45;;
70733;SDS011;58320;48.804;9.252;2023-12-04T10:49:49;16.58;;;8.65;;
70733;SDS011;58320;48.804;9.252;2023-12-04T10:52:16;16.13;;;8.15;;
70733;SDS011;58320;48.804;9.252;2023-12-04T10:54:46;14.40;;;7.50;;
70733;SDS011;58320;48.804;9.252;2023-12-04T10:57:13;14.00;;;7.63;;
70733;SDS011;58320;48.804;9.252;2023-12-04T10:59:54;16.55;;;8.75;;
70733;SDS011;58320;48.804;9.252;2023-12-04T11:02:25;15.90;;;7.88;;
70733;SDS011;58320;48.804;9.252;2023-12-04T11:04:54;13.55;;;7.47;;
70733;SDS011;58320;48.804;9.252;2023-12-04T11:07:28;14.07;;;7.80;;
70733;SDS011;58320;48.804;9.252;2023-12-04T11:09:57;15.43;;;7.45;;
70733;SDS011;58320;48.804;9.252;2023-12-04T11:12:25;15.68;;;8.23;;
70733;SDS011;58320;48.804;9.252;2023-12-04T11:14:56;11.88;;;7.90;;
70733;SDS011;58320;48.804;9.252;2023-12-04T11:17:25;15.00;;;7.38;;
70733;SDS011;58320;48.804;9.252;2023-12-04T11:19:53;11.87;;;6.40;;
70733;SDS011;58320;48.804;9.252;2023-12-04T11:22:19;13.07;;;7.05;;
70733;SDS011;58320;48.804;9.252;2023-12-04T11:24:47;14.52;;;7.68;;
70733;SDS011;58320;48.804;9.252;2023-12-04T11:27:16;12.52;;;7.57;;
70733;SDS011;58320;48.804;9.252;2023-12-04T11:29:44;14.43;;;7.97;;
70733;SDS011;58320;48.804;9.252;2023-12-04T11:32:14;14.57;;;7.83;;
70733;SDS011;58320;48.804;9.252;2023-12-04T11:34:51;16.75;;;8.40;;
70733;SDS011;58320;48.804;9.252;2023-12-04T11:37:21;16.20;;;8.43;;
70733;SDS011;58320;48.804;9.252;2023-12-04T11:39:46;13.50;;;8.05;;
70733;SDS011;58320;48.804;9.252;2023-12-04T11:42:13;15.00;;;8.63;;
70733;SDS011;58320;48.804;9.252;2023-12-04T11:44:44;17.03;;;8.37;;
70733;SDS011;58320;48.804;9.252;2023-12-04T11:47:09;15.55;;;9.10;;
70733;SDS011;58320;48.804;9.252;2023-12-04T11:49:36;15.48;;;8.90;;
70733;SDS011;58320;48.804;9.252;2023-12-04T11:52:05;16.33;;;8.17;;
70733;SDS011;58320;48.804;9.252;2023-12-04T11:57:24;16.38;;;8.40;;
70733;SDS011;58320;48.804;9.252;2023-12-04T11:59:51;14.70;;;7.60;;
70733;SDS011;58320;48.804;9.252;2023-12-04T12:02:17;14.95;;;8.38;;
70733;SDS011;58320;48.804;9.252;2023-12-04T12:04:43;14.43;;;7.23;;
70733;SDS011;58320;48.804;9.252;2023-12-04T12:07:12;12.63;;;7.68;;
70733;SDS011;58320;48.804;9.252;2023-12-04T12:09:38;15.88;;;7.90;;
70733;SDS011;58320;48.804;9.252;2023-12-04T12:12:04;12.88;;;6.88;;
70733;SDS011;58320;48.804;9.252;2023-12-04T12:14:30;14.00;;;7.03;;
70733;SDS011;58320;48.804;9.252;2023-12-04T12:16:59;15.40;;;8.27;;
70733;SDS011;58320;48.804;9.252;2023-12-04T12:19:28;13.65;;;7.90;;
70733;SDS011;58320;48.804;9.252;2023-12-04T12:21:54;14.10;;;8.13;;
70733;SDS011;58320;48.804;9.252;2023-12-04T12:24:20;15.70;;;8.47;;
70733;SDS011;58320;48.804;9.252;2023-12-04T12:26:46;14.40;;;8.05;;
70733;SDS011;58320;48.804;9.252;2023-12-04T12:29:12;19.33;;;8.88;;
70733;SDS011;58320;48.804;9.252;2023-12-04T12:31:37;16.07;;;8.43;;
70733;SDS011;58320;48.804;9.252;2023-12-04T12:34:03;15.52;;;8.23;;
70733;SDS011;58320;48.804;9.252;2023-12-04T12:36:29;14.65;;;8.32;;
70733;SDS011;58320;48.804;9.252;2023-12-04T12:39:01;16.57;;;8.80;;
70733;SDS011;58320;48.804;9.252;2023-12-04T12:41:29;17.08;;;9.43;;
70733;SDS011;58320;48.804;9.252;2023-12-04T12:43:55;18.20;;;9.65;;
70733;SDS011;58320;48.804;9.252;2023-12-04T12:46:21;16.90;;;9.27;;
70733;SDS011;58320;48.804;9.252;2023-12-04T12:48:47;16.17;;;9.25;;
70733;SDS011;58320;48.804;9.252;2023-12-04T12:51:13;17.30;;;9.27;;
70733;SDS011;58320;48.804;9.252;2023-12-04T12:53:39;18.45;;;9.38;;
70733;SDS011;58320;48.804;9.252;2023-12-04T12:56:05;18.67;;;10.27;;
70733;SDS011;58320;48.804;9.252;2023-12-04T12:58:33;17.83;;;10.48;;
70733;SDS011;58320;48.804;9.252;2023-12-04T13:00:59;18.30;;;10.47;;
70733;SDS011;58320;48.804;9.252;2023-12-04T13:03:26;20.88;;;11.55;;
70733;SDS011;58320;48.804;9.252;2023-12-04T13:05:53;19.80;;;10.60;;
70733;SDS011;58320;48.804;9.252;2023-12-04T13:08:19;17.97;;;10.77;;
70733;SDS011;58320;48.804;9.252;2023-12-04T13:10:44;19.80;;;10.63;;
70733;SDS011;58320;48.804;9.252;2023-12-04T13:13:11;18.53;;;10.70;;
70733;SDS011;58320;48.804;9.252;2023-12-04T13:15:37;18.52;;;10.18;;
70733;SDS011;58320;48.804;9.252;2023-12-04T13:18:03;18.70;;;10.85;;
70733;SDS011;58320;48.804;9.252;2023-12-04T13:20:29;18.58;;;10.82;;
70733;SDS011;58320;48.804;9.252;2023-12-04T13:22:55;21.63;;;11.10;;
70733;SDS011;58320;48.804;9.252;2023-12-04T13:25:20;20.92;;;11.23;;
70733;SDS011;58320;48.804;9.252;2023-12-04T13:27:47;19.60;;;11.30;;
70733;SDS011;58320;48.804;9.252;2023-12-04T13:30:14;20.80;;;11.50;;
70733;SDS011;58320;48.804;9.252;2023-12-04T13:32:39;22.65;;;12.20;;
70733;SDS011;58320;48.804;9.252;2023-12-04T13:35:05;21.53;;;11.17;;
70733;SDS011;58320;48.804;9.252;2023-12-04T13:37:36;20.10;;;12.40;;
70733;SDS011;58320;48.804;9.252;2023-12-04T13:40:04;20.92;;;11.25;;
70733;SDS011;58320;48.804;9.252;2023-12-04T13:42:37;26.15;;;14.00;;
70733;SDS011;58320;48.804;9.252;2023-12-04T13:45:22;23.73;;;13.10;;
70733;SDS011;58320;48.804;9.252;2023-12-04T13:47:48;24.30;;;13.67;;
70733;SDS011;58320;48.804;9.252;2023-12-04T13:50:15;22.38;;;13.38;;
70733;SDS011;58320;48.804;9.252;2023-12-04T13:52:42;27.42;;;12.55;;
70733;SDS011;58320;48.804;9.252;2023-12-04T13:55:10;22.58;;;12.52;;
70733;SDS011;58320;48.804;9.252;2023-12-04T13:57:44;24.10;;;12.27;;
70733;SDS011;58320;48.804;9.252;2023-12-04T14:00:25;24.02;;;13.25;;
70733;SDS011;58320;48.804;9.252;2023-12-04T14:02:51;22.65;;;12.55;;
70733;SDS011;58320;48.804;9.252;2023-12-04T14:05:29;24.50;;;12.38;;
70733;SDS011;58320;48.804;9.252;2023-12-04T14:07:55;25.35;;;12.13;;
70733;SDS011;58320;48.804;9.252;2023-12-04T14:10:23;24.80;;;13.30;;
70733;SDS011;58320;48.804;9.252;2023-12-04T14:12:51;26.05;;;14.73;;
70733;SDS011;58320;48.804;9.252;2023-12-04T14:15:17;24.95;;;14.57;;
70733;SDS011;58320;48.804;9.252;2023-12-04T14:17:43;30.60;;;14.90;;
70733;SDS011;58320;48.804;9.252;2023-12-04T14:20:11;29.80;;;14.43;;
70733;SDS011;58320;48.804;9.252;2023-12-04T14:22:37;26.27;;;14.25;;
70733;SDS011;58320;48.804;9.252;2023-12-04T14:25:07;26.02;;;14.23;;
70733;SDS011;58320;48.804;9.252;2023-12-04T14:27:33;29.08;;;13.50;;
70733;SDS011;58320;48.804;9.252;2023-12-04T14:30:00;26.00;;;14.15;;
70733;SDS011;58320;48.804;9.252;2023-12-04T14:32:28;28.13;;;14.27;;
70733;SDS011;58320;48.804;9.252;2023-12-04T14:34:54;27.52;;;13.50;;
70733;SDS011;58320;48.804;9.252;2023-12-04T14:37:20;26.57;;;14.17;;
70733;SDS011;58320;48.804;9.252;2023-12-04T14:39:45;29.45;;;14.50;;
70733;SDS011;58320;48.804;9.252;2023-12-04T14:42:11;31.50;;;14.43;;
70733;SDS011;58320;48.804;9.252;2023-12-04T14:44:37;25.87;;;13.27;;
70733;SDS011;58320;48.804;9.252;2023-12-04T14:47:03;27.98;;;14.30;;
70733;SDS011;58320;48.804;9.252;2023-12-04T14:49:29;28.65;;;13.40;;
70733;SDS011;58320;48.804;9.252;2023-12-04T14:51:56;25.97;;;13.63;;
70733;SDS011;58320;48.804;9.252;2023-12-04T14:54:22;24.45;;;12.55;;
70733;SDS011;58320;48.804;9.252;2023-12-04T14:57:02;27.23;;;13.82;;
70733;SDS011;58320;48.804;9.252;2023-12-04T14:59:48;27.27;;;13.15;;
70733;SDS011;58320;48.804;9.252;2023-12-04T15:02:14;28.00;;;13.73;;
70733;SDS011;58320;48.804;9.252;2023-12-04T15:04:40;29.02;;;11.95;;
70733;SDS011;58320;48.804;9.252;2023-12-04T15:07:28;24.17;;;12.53;;
70733;SDS011;58320;48.804;9.252;2023-12-04T15:09:59;30.45;;;13.05;;
70733;SDS011;58320;48.804;9.252;2023-12-04T15:12:31;25.52;;;12.65;;
70733;SDS011;58320;48.804;9.252;2023-12-04T15:15:05;27.40;;;13.23;;
70733;SDS011;58320;48.804;9.252;2023-12-04T15:17:37;23.27;;;12.05;;
70733;SDS011;58320;48.804;9.252;2023-12-04T15:20:13;25.77;;;12.97;;
70733;SDS011;58320;48.804;9.252;2023-12-04T15:22:56;25.40;;;12.38;;
70733;SDS011;58320;48.804;9.252;2023-12-04T15:25:22;23.05;;;11.77;;
70733;SDS011;58320;48.804;9.252;2023-12-04T15:27:48;24.63;;;12.83;;
70733;SDS011;58320;48.804;9.252;2023-12-04T15:30:15;22.45;;;11.38;;
70733;SDS011;58320;48.804;9.252;2023-12-04T15:32:41;28.30;;;13.63;;
70733;SDS011;58320;48.804;9.252;2023-12-04T15:35:07;25.65;;;12.88;;
70733;SDS011;58320;48.804;9.252;2023-12-04T15:37:34;27.77;;;13.60;;
70733;SDS011;58320;48.804;9.252;2023-12-04T15:40:00;28.38;;;14.27;;
70733;SDS011;58320;48.804;9.252;2023-12-04T15:42:26;28.25;;;13.07;;
70733;SDS011;58320;48.804;9.252;2023-12-04T15:44:53;30.20;;;15.35;;
70733;SDS011;58320;48.804;9.252;2023-12-04T15:47:19;32.27;;;14.80;;
70733;SDS011;58320;48.804;9.252;2023-12-04T15:49:49;28.10;;;13.70;;
70733;SDS011;58320;48.804;9.252;2023-12-04T15:52:15;27.73;;;14.13;;
70733;SDS011;58320;48.804;9.252;2023-12-04T15:54:43;32.60;;;14.15;;
70733;SDS011;58320;48.804;9.252;2023-12-04T15:57:10;30.60;;;14.35;;
70733;SDS011;58320;48.804;9.252;2023-12-04T15:59:36;25.67;;;12.50;;
70733;SDS011;58320;48.804;9.252;2023-12-04T16:02:02;32.33;;;15.23;;
70733;SDS011;58320;48.804;9.252;2023-12-04T16:04:28;25.60;;;13.20;;
70733;SDS011;58320;48.804;9.252;2023-12-04T16:06:54;25.35;;;12.05;;
70733;SDS011;58320;48.804;9.252;2023-12-04T16:09:20;26.37;;;13.67;;
70733;SDS011;58320;48.804;9.252;2023-12-04T16:11:46;27.67;;;14.10;;
70733;SDS011;58320;48.804;9.252;2023-12-04T16:14:12;28.17;;;14.57;;
70733;SDS011;58320;48.804;9.252;2023-12-04T16:16:37;31.03;;;13.73;;
70733;SDS011;58320;48.804;9.252;2023-12-04T16:19:03;34.75;;;15.43;;
70733;SDS011;58320;48.804;9.252;2023-12-04T16:21:30;29.73;;;14.43;;
70733;SDS011;58320;48.804;9.252;2023-12-04T16:23:56;29.33;;;14.23;;
70733;SDS011;58320;48.804;9.252;2023-12-04T16:26:23;26.52;;;13.15;;
70733;SDS011;58320;48.804;9.252;2023-12-04T16:28:49;27.87;;;13.63;;
70733;SDS011;58320;48.804;9.252;2023-12-04T16:31:15;29.23;;;13.18;;
70733;SDS011;58320;48.804;9.252;2023-12-04T16:33:41;25.83;;;13.82;;
70733;SDS011;58320;48.804;9.252;2023-12-04T16:36:07;26.55;;;13.00;;
70733;SDS011;58320;48.804;9.252;2023-12-04T16:38:35;27.67;;;13.33;;
70733;SDS011;58320;48.804;9.252;2023-12-04T16:41:01;25.77;;;13.20;;
70733;SDS011;58320;48.804;9.252;2023-12-04T16:43:27;25.77;;;12.40;;
70733;SDS011;58320;48.804;9.252;2023-12-04T16:45:52;26.70;;;13.07;;
70733;SDS011;58320;48.804;9.252;2023-12-04T16:48:19;28.65;;;13.25;;
70733;SDS011;58320;48.804;9.252;2023-12-04T16:50:45;28.15;;;14.02;;
70733;SDS011;58320;48.804;9.252;2023-12-04T16:53:11;29.20;;;14.27;;
70733;SDS011;58320;48.804;9.252;2023-12-04T16:55:36;28.15;;;13.80;;
70733;SDS011;58320;48.804;9.252;2023-12-04T16:58:02;30.30;;;14.20;;
70733;SDS011;58320;48.804;9.252;2023-12-04T17:00:29;30.50;;;14.57;;
70733;SDS011;58320;48.804;9.252;2023-12-04T17:02:55;30.23;;;14.75;;
70733;SDS011;58320;48.804;9.252;2023-12-04T17:05:22;28.20;;;13.10;;
70733;SDS011;58320;48.804;9.252;2023-12-04T17:07:48;26.03;;;13.93;;
70733;SDS011;58320;48.804;9.252;2023-12-04T17:10:13;31.88;;;14.15;;
70733;SDS011;58320;48.804;9.252;2023-12-04T17:12:40;32.47;;;16.25;;
70733;SDS011;58320;48.804;9.252;2023-12-04T17:15:10;30.58;;;14.85;;
70733;SDS011;58320;48.804;9.252;2023-12-04T17:17:36;29.50;;;14.27;;
70733;SDS011;58320;48.804;9.252;2023-12-04T17:20:02;31.15;;;14.55;;
70733;SDS011;58320;48.804;9.252;2023-12-04T17:22:28;28.95;;;14.77;;
70733;SDS011;58320;48.804;9.252;2023-12-04T17:24:55;30.55;;;14.63;;
70733;SDS011;58320;48.804;9.252;2023-12-04T17:27:21;32.13;;;14.13;;
70733;SDS011;58320;48.804;9.252;2023-12-04T17:29:46;29.17;;;14.35;;
70733;SDS011;58320;48.804;9.252;2023-12-04T17:32:12;33.60;;;16.47;;
70733;SDS011;58320;48.804;9.252;2023-12-04T17:34:38;36.20;;;18.75;;
70733;SDS011;58320;48.804;9.252;2023-12-04T17:37:03;40.47;;;18.43;;
70733;SDS011;58320;48.804;9.252;2023-12-04T17:39:29;35.70;;;16.88;;
70733;SDS011;58320;48.804;9.252;2023-12-04T17:41:55;41.78;;;19.25;;
70733;SDS011;58320;48.804;9.252;2023-12-04T17:44:21;35.38;;;17.02;;
70733;SDS011;58320;48.804;9.252;2023-12-04T17:46:47;34.33;;;18.40;;
70733;SDS011;58320;48.804;9.252;2023-12-04T17:49:13;32.53;;;17.17;;
70733;SDS011;58320;48.804;9.252;2023-12-04T17:51:39;35.53;;;18.33;;
70733;SDS011;58320;48.804;9.252;2023-12-04T17:54:05;35.53;;;17.75;;
70733;SDS011;58320;48.804;9.252;2023-12-04T17:56:30;39.10;;;17.38;;
70733;SDS011;58320;48.804;9.252;2023-12-04T17:58:58;35.67;;;17.77;;
70733;SDS011;58320;48.804;9.252;2023-12-04T18:01:25;37.00;;;16.33;;
70733;SDS011;58320;48.804;9.252;2023-12-04T18:03:50;37.00;;;16.92;;
70733;SDS011;58320;48.804;9.252;2023-12-04T18:06:26;35.00;;;16.05;;
70733;SDS011;58320;48.804;9.252;2023-12-04T18:08:53;36.83;;;16.33;;
70733;SDS011;58320;48.804;9.252;2023-12-04T18:11:19;33.15;;;15.82;;
70733;SDS011;58320;48.804;9.252;2023-12-04T18:13:45;34.25;;;16.58;;
70733;SDS011;58320;48.804;9.252;2023-12-04T18:16:12;33.97;;;15.07;;
70733;SDS011;58320;48.804;9.252;2023-12-04T18:18:38;39.05;;;18.13;;
70733;SDS011;58320;48.804;9.252;2023-12-04T18:21:05;58.30;;;25.98;;
70733;SDS011;58320;48.804;9.252;2023-12-04T18:23:31;76.78;;;34.53;;
70733;SDS011;58320;48.804;9.252;2023-12-04T18:25:57;75.93;;;33.30;;
70733;SDS011;58320;48.804;9.252;2023-12-04T18:28:24;70.30;;;33.23;;
70733;SDS011;58320;48.804;9.252;2023-12-04T18:30:50;66.65;;;30.15;;
70733;SDS011;58320;48.804;9.252;2023-12-04T18:33:17;49.45;;;23.45;;
70733;SDS011;58320;48.804;9.252;2023-12-04T18:35:43;42.47;;;20.08;;
70733;SDS011;58320;48.804;9.252;2023-12-04T18:38:11;37.83;;;18.48;;